| time (UTC) | temp C | wind direction | speed KPH | gust KPH | rain 1hr cm | rain 24hr cm | rain mn cm | humidity % | barometer mb |
| 20260906003527 | 24 | 120 | 3.2 | 4.8 | 0.08 | 0.28 | 0.28 | 85 | 1008.7 |
| 20260906002532 | 24 | 113 | 1.6 | 4.8 | 0.10 | 0.28 | 0.28 | 84 | 1009.0 |
| 20260906001516 | 25 | 106 | 3.2 | 4.8 | 0.15 | 0.28 | 0.28 | 83 | 1009.3 |
| 20260906000519 | 26 | 256 | 6.4 | 11.3 | 0.13 | 0.25 | 0.25 | 79 | 1009.6 |
| 20260905235519 | 26 | 271 | 6.4 | 11.3 | 0.13 | 0.25 | 0.25 | 83 | 1009.5 |
| 20260905234522 | 27 | 101 | 1.6 | 3.2 | 0.10 | 0.23 | 0.23 | 81 | 1009.5 |
| 20260905233524 | 27 | 68 | 3.2 | 4.8 | 0.08 | 0.20 | 0.20 | 76 | 1009.3 |
| 20260905232547 | 30 | 110 | 4.8 | 6.4 | 0.05 | 0.18 | 0.18 | 70 | 1009.0 |
| 20260905231525 | 35 | 194 | 1.6 | 6.4 | 0.00 | 0.13 | 0.13 | 55 | 1008.9 |
| 20260905230516 | 36 | 90 | 1.6 | 3.2 | 0.00 | 0.13 | 0.13 | 49 | 1008.7 |
| 20260905225519 | 36 | 0.0 | 0.0 | 0.00 | 0.13 | 0.13 | 47 | 1008.5 | |
| 20260905224517 | 35 | 142 | 1.6 | 3.2 | 0.00 | 0.13 | 0.13 | 49 | 1008.8 |
| 20260905223601 | 36 | 217 | 4.8 | 6.4 | 0.00 | 0.13 | 0.13 | 47 | 1008.4 |
| 20260905222518 | 36 | 253 | 4.8 | 8.0 | 0.00 | 0.13 | 0.13 | 47 | 1008.7 |
| 20260905221521 | 36 | 158 | 4.8 | 8.0 | 0.00 | 0.13 | 0.13 | 46 | 1008.7 |
| 20260905220545 | 36 | 244 | 3.2 | 4.8 | 0.00 | 0.13 | 0.13 | 46 | 1008.8 |
| 20260905215527 | 37 | 214 | 3.2 | 6.4 | 0.00 | 0.13 | 0.13 | 45 | 1009.0 |
| 20260905214532 | 37 | 165 | 3.2 | 3.2 | 0.00 | 0.13 | 0.13 | 45 | 1008.9 |
| 20260905213517 | 36 | 258 | 4.8 | 9.7 | 0.00 | 0.13 | 0.13 | 47 | 1008.7 |
| 20260905212533 | 36 | 253 | 4.8 | 9.7 | 0.00 | 0.13 | 0.13 | 48 | 1008.8 |
| 20260905211518 | 36 | 178 | 3.2 | 4.8 | 0.00 | 0.13 | 0.13 | 47 | 1008.8 |
| 20260905210521 | 36 | 150 | 3.2 | 9.7 | 0.00 | 0.13 | 0.13 | 46 | 1008.8 |
| 20260905205524 | 36 | 143 | 6.4 | 11.3 | 0.00 | 0.13 | 0.13 | 46 | 1008.9 |
| 20260905204527 | 36 | 194 | 3.2 | 6.4 | 0.00 | 0.13 | 0.13 | 46 | 1009.0 |
| 20260905203527 | 36 | 202 | 4.8 | 11.3 | 0.00 | 0.13 | 0.13 | 46 | 1009.2 |
| 20260905202524 | 37 | 263 | 3.2 | 8.0 | 0.00 | 0.13 | 0.13 | 46 | 1009.2 |
| 20260905201526 | 36 | 222 | 4.8 | 6.4 | 0.00 | 0.13 | 0.13 | 47 | 1009.3 |
| 20260905200525 | 36 | 233 | 4.8 | 8.0 | 0.00 | 0.13 | 0.13 | 47 | 1009.4 |
| 20260905195528 | 36 | 248 | 4.8 | 11.3 | 0.00 | 0.13 | 0.13 | 47 | 1009.6 |
| 20260905194530 | 36 | 222 | 4.8 | 9.7 | 0.00 | 0.13 | 0.13 | 46 | 1009.9 |
| 20260905193516 | 36 | 259 | 8.0 | 9.7 | 0.00 | 0.13 | 0.13 | 46 | 1009.9 |
| 20260905192520 | 36 | 208 | 6.4 | 9.7 | 0.00 | 0.13 | 0.13 | 47 | 1010.0 |
| 20260905191522 | 36 | 237 | 4.8 | 6.4 | 0.00 | 0.13 | 0.13 | 47 | 1010.0 |
| 20260905190559 | 35 | 249 | 3.2 | 6.4 | 0.00 | 0.13 | 0.13 | 46 | 1010.1 |
| 20260905185517 | 36 | 257 | 4.8 | 11.3 | 0.00 | 0.13 | 0.13 | 47 | 1010.4 |
| 20260905184533 | 36 | 246 | 3.2 | 9.7 | 0.00 | 0.13 | 0.13 | 45 | 1010.5 |
| 20260905183545 | 36 | 186 | 3.2 | 4.8 | 0.00 | 0.13 | 0.13 | 45 | 1010.6 |
| 20260905182530 | 36 | 179 | 3.2 | 4.8 | 0.00 | 0.13 | 0.13 | 44 | 1010.7 |
| 20260905181526 | 36 | 106 | 3.2 | 4.8 | 0.00 | 0.13 | 0.13 | 44 | 1010.8 |
| 20260905180519 | 35 | 230 | 3.2 | 8.0 | 0.00 | 0.13 | 0.13 | 47 | 1010.9 |
| 20260905175523 | 35 | 232 | 1.6 | 6.4 | 0.00 | 0.13 | 0.13 | 46 | 1011.1 |
| 20260905174522 | 35 | 205 | 1.6 | 3.2 | 0.00 | 0.13 | 0.13 | 49 | 1011.1 |
| 20260905173525 | 34 | 188 | 1.6 | 4.8 | 0.00 | 0.13 | 0.13 | 52 | 1011.0 |
| 20260905172528 | 34 | 100 | 3.2 | 3.2 | 0.00 | 0.13 | 0.13 | 48 | 1011.4 |
| 20260905171531 | 33 | 247 | 1.6 | 3.2 | 0.00 | 0.13 | 0.13 | 51 | 1011.5 |
| 20260905170516 | 32 | 113 | 3.2 | 6.4 | 0.00 | 0.13 | 0.13 | 54 | 1011.5 |
| 20260905165519 | 32 | 190 | 3.2 | 6.4 | 0.00 | 0.13 | 0.13 | 57 | 1011.9 |
| 20260905164524 | 32 | 113 | 3.2 | 4.8 | 0.00 | 0.13 | 0.13 | 55 | 1012.0 |
| 20260905163525 | 32 | 82 | 3.2 | 4.8 | 0.00 | 0.13 | 0.13 | 54 | 1011.8 |
| 20260905162530 | 31 | 109 | 3.2 | 4.8 | 0.00 | 0.13 | 0.13 | 59 | 1012.0 |
| 20260905161516 | 30 | 203 | 3.2 | 4.8 | 0.00 | 0.13 | 0.13 | 63 | 1012.0 |
| 20260905160527 | 30 | 98 | 3.2 | 6.4 | 0.00 | 0.13 | 0.13 | 61 | 1012.0 |
| 20260905155530 | 30 | 126 | 3.2 | 4.8 | 0.00 | 0.13 | 0.13 | 64 | 1012.2 |
| 20260905154548 | 29 | 167 | 1.6 | 3.2 | 0.00 | 0.13 | 0.13 | 68 | 1012.3 |
| 20260905153531 | 28 | 105 | 3.2 | 4.8 | 0.00 | 0.13 | 0.13 | 68 | 1012.6 |
| 20260905152516 | 28 | 116 | 1.6 | 4.8 | 0.00 | 0.13 | 0.13 | 73 | 1012.7 |
| 20260905151539 | 27 | 99 | 3.2 | 6.4 | 0.00 | 0.13 | 0.13 | 73 | 1012.6 |
| 20260905150523 | 26 | 104 | 3.2 | 6.4 | 0.00 | 0.13 | 0.13 | 77 | 1012.6 |
| 20260905145521 | 25 | 105 | 3.2 | 6.4 | 0.13 | 0.13 | 0.13 | 82 | 1012.8 |
| 20260905144517 | 25 | 113 | 0.0 | 3.2 | 0.13 | 0.13 | 0.13 | 86 | 1012.8 |
| 20260905143532 | 23 | 106 | 1.6 | 4.8 | 0.13 | 0.13 | 0.13 | 90 | 1012.8 |
| 20260905142517 | 23 | 0.0 | 0.0 | 0.13 | 0.13 | 0.13 | 92 | 1012.9 | |
| 20260905141613 | 23 | 0.0 | 0.0 | 0.13 | 0.13 | 0.13 | 90 | 1012.9 | |
| 20260905140531 | 23 | 103 | 3.2 | 4.8 | 0.13 | 0.13 | 0.13 | 87 | 1013.0 |
| 20260905135516 | 24 | 117 | 4.8 | 8.0 | 0.00 | 0.00 | 0.00 | 83 | 1013.6 |
| 20260905134541 | 25 | 87 | 4.8 | 6.4 | 0.00 | 0.00 | 0.00 | 80 | 1013.4 |
| 20260905133525 | 25 | 167 | 3.2 | 6.4 | 0.00 | 0.00 | 0.00 | 80 | 1013.1 |
| 20260905132528 | 25 | 88 | 3.2 | 4.8 | 0.00 | 0.00 | 0.00 | 81 | 1013.0 |
| 20260905131530 | 24 | 101 | 3.2 | 6.4 | 0.00 | 0.00 | 0.00 | 84 | 1013.0 |
| 20260905130517 | 23 | 72 | 4.8 | 6.4 | 0.00 | 0.00 | 0.00 | 89 | 1013.2 |
| 20260905125532 | 23 | 132 | 1.6 | 3.2 | 0.00 | 0.00 | 0.00 | 89 | 1012.4 |
| 20260905124517 | 23 | 122 | 1.6 | 3.2 | 0.00 | 0.00 | 0.00 | 90 | 1012.7 |
| 20260905123521 | 23 | 0.0 | 0.0 | 0.00 | 0.00 | 0.00 | 91 | 1012.8 | |
| 20260905122540 | 23 | 111 | 0.0 | 3.2 | 0.00 | 0.00 | 0.00 | 91 | 1012.6 |
| 20260905121517 | 23 | 0.0 | 0.0 | 0.00 | 0.00 | 0.00 | 92 | 1012.4 | |
| 20260905120535 | 22 | 163 | 1.6 | 3.2 | 0.00 | 0.00 | 0.00 | 95 | 1012.3 |
| 20260905115526 | 22 | 144 | 0.0 | 3.2 | 0.00 | 0.00 | 0.00 | 97 | 1012.3 |
| 20260905114530 | 22 | 99 | 1.6 | 3.2 | 0.00 | 0.00 | 0.00 | 96 | 1012.0 |
| 20260905113527 | 22 | 90 | 0.0 | 1.6 | 0.00 | 0.00 | 0.00 | 97 | 1011.8 |
| 20260905112531 | 22 | 231 | 1.6 | 4.8 | 0.00 | 0.00 | 0.00 | 96 | 1011.7 |
| 20260905111536 | 22 | 0.0 | 0.0 | 0.00 | 0.00 | 0.00 | 96 | 1011.4 | |
| 20260905110518 | 22 | 0.0 | 0.0 | 0.00 | 0.00 | 0.00 | 96 | 1011.3 | |
| 20260905105522 | 22 | 0.0 | 0.0 | 0.00 | 0.00 | 0.00 | 96 | 1011.3 | |
| 20260905104520 | 23 | 0.0 | 0.0 | 0.00 | 0.00 | 0.00 | 96 | 1010.7 | |
| 20260905103537 | 23 | 0.0 | 0.0 | 0.00 | 0.00 | 0.00 | 96 | 1010.9 | |
| 20260905102526 | 23 | 0.0 | 0.0 | 0.00 | 0.00 | 0.00 | 94 | 1011.2 | |
| 20260905101525 | 23 | 0.0 | 0.0 | 0.00 | 0.00 | 0.00 | 94 | 1011.4 | |
| 20260905100544 | 23 | 203 | 0.0 | 1.6 | 0.00 | 0.00 | 0.00 | 94 | 1011.4 |
| 20260905095527 | 23 | 92 | 3.2 | 3.2 | 0.00 | 0.00 | 0.00 | 94 | 1010.9 |
| 20260905094545 | 23 | 0.0 | 0.0 | 0.00 | 0.00 | 0.00 | 94 | 1010.6 | |
| 20260905093528 | 23 | 0.0 | 0.0 | 0.00 | 0.00 | 0.00 | 94 | 1010.4 | |
| 20260905092526 | 23 | 0.0 | 0.0 | 0.00 | 0.00 | 0.00 | 93 | 1010.3 | |
| 20260905091524 | 23 | 0.0 | 0.0 | 0.00 | 0.00 | 0.00 | 93 | 1010.2 | |
| 20260905090528 | 23 | 0.0 | 0.0 | 0.00 | 0.00 | 0.00 | 93 | 1010.2 | |
| 20260905085531 | 23 | 0.0 | 0.0 | 0.00 | 0.00 | 0.00 | 93 | 1010.3 | |
| 20260905084517 | 24 | 0.0 | 0.0 | 0.00 | 0.00 | 0.00 | 92 | 1010.2 | |
| 20260905083559 | 24 | 0.0 | 0.0 | 0.00 | 0.00 | 0.00 | 92 | 1010.5 | |
| 20260905082517 | 24 | 90 | 0.0 | 3.2 | 0.00 | 0.00 | 0.00 | 92 | 1010.3 |
| 20260905081520 | 24 | 68 | 0.0 | 3.2 | 0.00 | 0.00 | 0.00 | 91 | 1010.4 |
| 20260905080524 | 24 | 0.0 | 0.0 | 0.00 | 0.00 | 0.00 | 91 | 1010.5 | |
| 20260905075548 | 24 | 0.0 | 0.0 | 0.00 | 0.00 | 0.00 | 91 | 1010.7 | |
| 20260905074530 | 24 | 0.0 | 0.0 | 0.00 | 0.00 | 0.00 | 91 | 1010.8 | |
| 20260905073615 | 25 | 0.0 | 0.0 | 0.00 | 0.00 | 0.00 | 90 | 1010.6 | |
| 20260905072518 | 24 | 0.0 | 0.0 | 0.00 | 0.00 | 0.00 | 90 | 1010.8 | |
| 20260905071523 | 24 | 0.0 | 0.0 | 0.00 | 0.00 | 0.00 | 91 | 1010.8 | |
| 20260905070525 | 24 | 0.0 | 0.0 | 0.00 | 0.00 | 0.00 | 92 | 1010.9 | |
| 20260905065522 | 24 | 0.0 | 0.0 | 0.00 | 0.00 | 0.00 | 92 | 1011.0 | |
| 20260905064520 | 24 | 0.0 | 0.0 | 0.00 | 0.00 | 0.00 | 93 | 1011.1 | |
| 20260905063517 | 24 | 0.0 | 0.0 | 0.00 | 0.00 | 0.00 | 92 | 1011.3 | |
| 20260905062534 | 24 | 0.0 | 0.0 | 0.00 | 0.00 | 0.00 | 92 | 1011.4 | |
| 20260905061518 | 24 | 0.0 | 0.0 | 0.00 | 0.00 | 0.00 | 92 | 1011.5 | |
| 20260905060541 | 24 | 0.0 | 0.0 | 0.00 | 0.00 | 0.00 | 91 | 1011.6 | |
| 20260905055524 | 24 | 0.0 | 0.0 | 0.00 | 0.00 | 0.00 | 92 | 1011.7 | |
| 20260905054527 | 25 | 0.0 | 0.0 | 0.00 | 0.00 | 0.00 | 90 | 1011.7 | |
| 20260905053531 | 25 | 0.0 | 0.0 | 0.00 | 0.00 | 0.00 | 91 | 1011.7 | |
| 20260905052516 | 25 | 0.0 | 0.0 | 0.00 | 0.00 | 0.00 | 90 | 1011.9 | |
| 20260905051519 | 25 | 0.0 | 0.0 | 0.00 | 0.00 | 0.00 | 90 | 1011.9 | |
| 20260905050519 | 25 | 0.0 | 0.0 | 0.00 | 0.00 | 0.00 | 89 | 1011.9 | |
| 20260905045521 | 25 | 0.0 | 0.0 | 0.00 | 0.00 | 0.00 | 88 | 1011.7 | |
| 20260905044524 | 25 | 0.0 | 0.0 | 0.00 | 0.00 | 0.00 | 87 | 1011.9 | |
| 20260905043527 | 25 | 0.0 | 0.0 | 0.00 | 0.00 | 0.00 | 88 | 1011.7 | |
| 20260905042530 | 26 | 0.0 | 0.0 | 0.00 | 0.00 | 0.00 | 87 | 1011.8 | |
| 20260905041516 | 26 | 0.0 | 0.0 | 0.00 | 0.00 | 0.00 | 86 | 1011.7 | |
| 20260905040520 | 26 | 0.0 | 0.0 | 0.00 | 0.00 | 0.00 | 85 | 1011.6 | |
| 20260905035544 | 26 | 0.0 | 0.0 | 0.00 | 0.00 | 0.00 | 85 | 1011.8 | |
| 20260905034546 | 26 | 0.0 | 0.0 | 0.00 | 0.00 | 0.00 | 86 | 1012.0 | |
| 20260905033529 | 26 | 0.0 | 0.0 | 0.00 | 0.00 | 0.00 | 85 | 1012.1 | |
| 20260905032526 | 26 | 0.0 | 0.0 | 0.00 | 0.00 | 0.00 | 86 | 1012.0 | |
| 20260905031517 | 26 | 0.0 | 0.0 | 0.00 | 0.00 | 0.00 | 86 | 1012.1 | |
| 20260905030541 | 26 | 0.0 | 0.0 | 0.00 | 0.00 | 0.00 | 84 | 1012.1 | |
| 20260905025518 | 26 | 0.0 | 0.0 | 0.00 | 0.00 | 0.00 | 84 | 1011.7 | |
| 20260905024527 | 26 | 0.0 | 0.0 | 0.00 | 0.00 | 0.00 | 82 | 1011.8 | |
| 20260905023551 | 26 | 0.0 | 0.0 | 0.00 | 0.00 | 0.00 | 82 | 1011.7 | |
| 20260905022517 | 26 | 0.0 | 0.0 | 0.00 | 0.00 | 0.00 | 84 | 1011.7 | |
| 20260905021519 | 27 | 0.0 | 0.0 | 0.00 | 0.00 | 0.00 | 82 | 1011.7 | |
| 20260905020523 | 27 | 0.0 | 0.0 | 0.00 | 0.00 | 0.00 | 80 | 1011.7 | |
| 20260905015527 | 27 | 0.0 | 0.0 | 0.00 | 0.00 | 0.00 | 77 | 1011.7 | |
| 20260905014530 | 27 | 0.0 | 0.0 | 0.00 | 0.00 | 0.00 | 78 | 1011.6 | |
| 20260905013534 | 28 | 0.0 | 0.0 | 0.00 | 0.00 | 0.00 | 77 | 1011.5 | |
| 20260905012539 | 28 | 0.0 | 0.0 | 0.00 | 0.00 | 0.00 | 75 | 1011.3 | |
| 20260905011602 | 28 | 0.0 | 0.0 | 0.00 | 0.00 | 0.00 | 73 | 1011.3 | |
| 20260905010525 | 29 | 0.0 | 0.0 | 0.00 | 0.00 | 0.00 | 70 | 1011.2 | |
| 20260905005528 | 30 | 0.0 | 0.0 | 0.00 | 0.00 | 0.00 | 67 | 1010.8 | |
| 20260905004531 | 30 | 0.0 | 0.0 | 0.00 | 0.00 | 0.00 | 66 | 1010.7 |